sensor_id;sensor_type;location;lat;lon;timestamp;P1;durP1;ratioP1;P2;durP2;ratioP2
58466;SDS011;44255;49.244;7.726;2022-09-12T03:31:56;7.60;;;6.18;;
58466;SDS011;44255;49.244;7.726;2022-09-12T03:34:23;10.57;;;6.60;;
58466;SDS011;44255;49.244;7.726;2022-09-12T03:36:50;7.30;;;6.15;;
58466;SDS011;44255;49.244;7.726;2022-09-12T03:39:15;12.15;;;6.35;;
58466;SDS011;44255;49.244;7.726;2022-09-12T03:41:41;7.13;;;5.82;;
58466;SDS011;44255;49.244;7.726;2022-09-12T03:44:06;9.82;;;6.28;;
58466;SDS011;44255;49.244;7.726;2022-09-12T03:46:32;8.73;;;6.57;;
58466;SDS011;44255;49.244;7.726;2022-09-12T03:48:57;12.32;;;6.13;;
58466;SDS011;44255;49.244;7.726;2022-09-12T03:51:23;9.45;;;6.68;;
58466;SDS011;44255;49.244;7.726;2022-09-12T03:53:48;10.77;;;6.50;;
58466;SDS011;44255;49.244;7.726;2022-09-12T03:56:13;7.10;;;5.90;;
58466;SDS011;44255;49.244;7.726;2022-09-12T03:58:39;7.47;;;6.07;;
58466;SDS011;44255;49.244;7.726;2022-09-12T04:01:05;6.60;;;5.70;;
58466;SDS011;44255;49.244;7.726;2022-09-12T04:03:31;9.80;;;5.95;;
58466;SDS011;44255;49.244;7.726;2022-09-12T04:05:57;8.07;;;5.50;;
58466;SDS011;44255;49.244;7.726;2022-09-12T04:08:22;7.70;;;6.00;;
58466;SDS011;44255;49.244;7.726;2022-09-12T04:10:47;8.80;;;6.13;;
58466;SDS011;44255;49.244;7.726;2022-09-12T04:13:12;7.73;;;5.90;;
58466;SDS011;44255;49.244;7.726;2022-09-12T04:15:38;7.77;;;5.60;;
58466;SDS011;44255;49.244;7.726;2022-09-12T04:18:03;8.27;;;5.97;;
58466;SDS011;44255;49.244;7.726;2022-09-12T04:20:28;8.80;;;5.63;;
58466;SDS011;44255;49.244;7.726;2022-09-12T04:22:54;7.17;;;6.10;;
58466;SDS011;44255;49.244;7.726;2022-09-12T04:25:19;10.33;;;5.83;;
58466;SDS011;44255;49.244;7.726;2022-09-12T04:27:44;7.87;;;6.10;;
58466;SDS011;44255;49.244;7.726;2022-09-12T04:30:10;7.43;;;6.30;;
58466;SDS011;44255;49.244;7.726;2022-09-12T04:32:35;12.73;;;6.80;;
58466;SDS011;44255;49.244;7.726;2022-09-12T04:35:01;7.85;;;6.13;;
58466;SDS011;44255;49.244;7.726;2022-09-12T04:37:28;11.05;;;6.07;;
58466;SDS011;44255;49.244;7.726;2022-09-12T04:39:53;9.57;;;6.27;;
58466;SDS011;44255;49.244;7.726;2022-09-12T04:42:21;8.77;;;5.90;;
58466;SDS011;44255;49.244;7.726;2022-09-12T04:44:47;9.10;;;5.85;;
58466;SDS011;44255;49.244;7.726;2022-09-12T04:47:12;7.47;;;6.17;;
58466;SDS011;44255;49.244;7.726;2022-09-12T04:49:38;8.03;;;6.00;;
58466;SDS011;44255;49.244;7.726;2022-09-12T04:52:03;8.77;;;6.17;;
58466;SDS011;44255;49.244;7.726;2022-09-12T04:54:28;9.80;;;6.83;;
58466;SDS011;44255;49.244;7.726;2022-09-12T04:56:53;8.63;;;6.30;;
58466;SDS011;44255;49.244;7.726;2022-09-12T04:59:19;9.53;;;6.43;;
58466;SDS011;44255;49.244;7.726;2022-09-12T05:01:45;9.90;;;6.65;;
58466;SDS011;44255;49.244;7.726;2022-09-12T05:04:11;9.40;;;6.28;;
58466;SDS011;44255;49.244;7.726;2022-09-12T05:06:37;7.80;;;6.32;;
58466;SDS011;44255;49.244;7.726;2022-09-12T05:09:05;11.23;;;6.07;;
58466;SDS011;44255;49.244;7.726;2022-09-12T05:11:34;11.48;;;6.20;;
58466;SDS011;44255;49.244;7.726;2022-09-12T05:14:01;9.30;;;5.82;;
58466;SDS011;44255;49.244;7.726;2022-09-12T05:16:27;8.07;;;6.90;;
58466;SDS011;44255;49.244;7.726;2022-09-12T05:21:21;13.27;;;5.95;;
58466;SDS011;44255;49.244;7.726;2022-09-12T05:23:53;8.18;;;5.90;;
58466;SDS011;44255;49.244;7.726;2022-09-12T05:26:20;7.72;;;5.90;;
58466;SDS011;44255;49.244;7.726;2022-09-12T05:28:47;6.85;;;6.03;;
58466;SDS011;44255;49.244;7.726;2022-09-12T05:31:14;13.43;;;6.57;;
58466;SDS011;44255;49.244;7.726;2022-09-12T05:33:42;16.63;;;6.68;;
58466;SDS011;44255;49.244;7.726;2022-09-12T05:36:11;13.98;;;6.45;;
58466;SDS011;44255;49.244;7.726;2022-09-12T05:38:37;11.60;;;5.78;;
58466;SDS011;44255;49.244;7.726;2022-09-12T05:41:04;7.63;;;5.60;;
58466;SDS011;44255;49.244;7.726;2022-09-12T05:43:34;8.93;;;5.57;;
58466;SDS011;44255;49.244;7.726;2022-09-12T05:48:37;7.30;;;5.50;;
58466;SDS011;44255;49.244;7.726;2022-09-12T05:51:05;8.05;;;5.63;;
58466;SDS011;44255;49.244;7.726;2022-09-12T05:53:34;12.10;;;5.50;;
58466;SDS011;44255;49.244;7.726;2022-09-12T05:56:07;7.80;;;5.97;;
58466;SDS011;44255;49.244;7.726;2022-09-12T05:58:36;12.02;;;5.65;;
58466;SDS011;44255;49.244;7.726;2022-09-12T06:01:06;10.60;;;5.45;;
58466;SDS011;44255;49.244;7.726;2022-09-12T06:03:33;7.38;;;5.30;;
58466;SDS011;44255;49.244;7.726;2022-09-12T06:06:01;6.57;;;5.22;;
58466;SDS011;44255;49.244;7.726;2022-09-12T06:08:28;11.65;;;5.63;;
58466;SDS011;44255;49.244;7.726;2022-09-12T06:10:58;12.52;;;5.00;;
58466;SDS011;44255;49.244;7.726;2022-09-12T06:13:27;10.07;;;4.70;;
58466;SDS011;44255;49.244;7.726;2022-09-12T06:15:52;6.80;;;5.03;;
58466;SDS011;44255;49.244;7.726;2022-09-12T06:18:18;6.60;;;5.30;;
58466;SDS011;44255;49.244;7.726;2022-09-12T06:20:44;8.38;;;4.88;;
58466;SDS011;44255;49.244;7.726;2022-09-12T06:23:10;6.53;;;5.10;;
58466;SDS011;44255;49.244;7.726;2022-09-12T06:25:35;8.47;;;5.20;;
58466;SDS011;44255;49.244;7.726;2022-09-12T06:28:00;9.33;;;5.00;;
58466;SDS011;44255;49.244;7.726;2022-09-12T06:30:26;9.00;;;4.77;;
58466;SDS011;44255;49.244;7.726;2022-09-12T06:32:51;6.45;;;5.45;;
58466;SDS011;44255;49.244;7.726;2022-09-12T06:35:17;8.73;;;5.87;;
58466;SDS011;44255;49.244;7.726;2022-09-12T06:37:45;8.30;;;5.10;;
58466;SDS011;44255;49.244;7.726;2022-09-12T06:40:10;7.03;;;5.60;;
58466;SDS011;44255;49.244;7.726;2022-09-12T06:42:36;7.90;;;5.28;;
58466;SDS011;44255;49.244;7.726;2022-09-12T06:45:01;9.77;;;5.10;;
58466;SDS011;44255;49.244;7.726;2022-09-12T06:47:26;7.03;;;5.73;;
58466;SDS011;44255;49.244;7.726;2022-09-12T06:49:52;10.83;;;5.60;;
58466;SDS011;44255;49.244;7.726;2022-09-12T06:52:17;6.83;;;5.20;;
58466;SDS011;44255;49.244;7.726;2022-09-12T06:54:42;7.93;;;5.87;;
58466;SDS011;44255;49.244;7.726;2022-09-12T06:57:07;7.10;;;5.87;;
58466;SDS011;44255;49.244;7.726;2022-09-12T06:59:33;6.47;;;5.83;;
58466;SDS011;44255;49.244;7.726;2022-09-12T07:01:58;8.50;;;5.33;;
58466;SDS011;44255;49.244;7.726;2022-09-12T07:04:23;6.97;;;5.67;;
58466;SDS011;44255;49.244;7.726;2022-09-12T07:06:49;10.43;;;5.63;;
58466;SDS011;44255;49.244;7.726;2022-09-12T07:09:14;7.13;;;6.10;;
58466;SDS011;44255;49.244;7.726;2022-09-12T07:11:43;7.03;;;5.90;;
58466;SDS011;44255;49.244;7.726;2022-09-12T07:14:10;6.70;;;5.60;;
58466;SDS011;44255;49.244;7.726;2022-09-12T07:16:37;7.32;;;6.25;;
58466;SDS011;44255;49.244;7.726;2022-09-12T07:19:04;7.80;;;6.47;;
58466;SDS011;44255;49.244;7.726;2022-09-12T07:21:30;11.25;;;6.63;;
58466;SDS011;44255;49.244;7.726;2022-09-12T07:23:56;9.25;;;6.88;;
58466;SDS011;44255;49.244;7.726;2022-09-12T07:26:22;7.40;;;6.13;;
58466;SDS011;44255;49.244;7.726;2022-09-12T07:28:51;7.15;;;5.93;;
58466;SDS011;44255;49.244;7.726;2022-09-12T07:31:18;9.65;;;6.03;;
58466;SDS011;44255;49.244;7.726;2022-09-12T07:33:45;8.07;;;6.43;;
58466;SDS011;44255;49.244;7.726;2022-09-12T07:36:12;7.28;;;6.40;;
58466;SDS011;44255;49.244;7.726;2022-09-12T07:38:39;7.60;;;6.10;;
58466;SDS011;44255;49.244;7.726;2022-09-12T07:43:42;7.93;;;6.30;;
58466;SDS011;44255;49.244;7.726;2022-09-12T07:46:07;12.07;;;6.70;;
58466;SDS011;44255;49.244;7.726;2022-09-12T07:48:33;8.10;;;6.35;;
58466;SDS011;44255;49.244;7.726;2022-09-12T07:50:59;7.30;;;6.60;;
58466;SDS011;44255;49.244;7.726;2022-09-12T07:53:31;10.65;;;6.68;;
58466;SDS011;44255;49.244;7.726;2022-09-12T07:56:01;12.20;;;6.70;;
58466;SDS011;44255;49.244;7.726;2022-09-12T07:58:28;8.93;;;6.97;;
58466;SDS011;44255;49.244;7.726;2022-09-12T08:00:54;8.32;;;6.53;;
58466;SDS011;44255;49.244;7.726;2022-09-12T08:03:26;7.80;;;6.13;;
58466;SDS011;44255;49.244;7.726;2022-09-12T08:05:51;10.17;;;6.40;;
58466;SDS011;44255;49.244;7.726;2022-09-12T08:08:16;6.73;;;6.03;;
58466;SDS011;44255;49.244;7.726;2022-09-12T08:10:42;9.70;;;7.03;;
58466;SDS011;44255;49.244;7.726;2022-09-12T08:13:07;8.03;;;7.33;;
58466;SDS011;44255;49.244;7.726;2022-09-12T08:15:33;6.37;;;5.70;;
58466;SDS011;44255;49.244;7.726;2022-09-12T08:17:58;7.50;;;5.65;;
58466;SDS011;44255;49.244;7.726;2022-09-12T08:20:24;8.43;;;5.83;;
58466;SDS011;44255;49.244;7.726;2022-09-12T08:22:49;7.18;;;5.57;;
58466;SDS011;44255;49.244;7.726;2022-09-12T08:25:15;11.35;;;6.10;;
58466;SDS011;44255;49.244;7.726;2022-09-12T08:27:41;5.87;;;5.27;;
58466;SDS011;44255;49.244;7.726;2022-09-12T08:30:07;7.22;;;4.45;;
58466;SDS011;44255;49.244;7.726;2022-09-12T08:32:33;5.22;;;4.72;;
58466;SDS011;44255;49.244;7.726;2022-09-12T08:34:59;4.95;;;4.07;;
58466;SDS011;44255;49.244;7.726;2022-09-12T08:37:25;4.40;;;3.97;;
58466;SDS011;44255;49.244;7.726;2022-09-12T08:39:50;4.17;;;3.77;;
58466;SDS011;44255;49.244;7.726;2022-09-12T08:47:57;4.90;;;3.75;;
58466;SDS011;44255;49.244;7.726;2022-09-12T08:50:27;3.88;;;3.50;;
58466;SDS011;44255;49.244;7.726;2022-09-12T08:55:28;5.25;;;3.42;;
58466;SDS011;44255;49.244;7.726;2022-09-12T08:58:22;3.90;;;3.60;;
58466;SDS011;44255;49.244;7.726;2022-09-12T09:00:52;3.90;;;3.40;;
58466;SDS011;44255;49.244;7.726;2022-09-12T09:06:10;4.57;;;3.80;;
58466;SDS011;44255;49.244;7.726;2022-09-12T09:11:20;4.63;;;3.50;;
58466;SDS011;44255;49.244;7.726;2022-09-12T09:14:03;4.65;;;3.38;;
58466;SDS011;44255;49.244;7.726;2022-09-12T09:17:10;3.60;;;3.20;;
58466;SDS011;44255;49.244;7.726;2022-09-12T09:19:41;4.53;;;3.40;;
58466;SDS011;44255;49.244;7.726;2022-09-12T09:22:27;4.35;;;3.40;;
58466;SDS011;44255;49.244;7.726;2022-09-12T09:25:01;4.82;;;3.28;;
58466;SDS011;44255;49.244;7.726;2022-09-12T09:27:32;3.30;;;3.00;;
58466;SDS011;44255;49.244;7.726;2022-09-12T09:30:03;3.20;;;2.90;;
58466;SDS011;44255;49.244;7.726;2022-09-12T09:34:57;3.95;;;2.83;;
58466;SDS011;44255;49.244;7.726;2022-09-12T09:41:01;2.70;;;2.50;;
58466;SDS011;44255;49.244;7.726;2022-09-12T09:43:36;3.08;;;2.78;;
58466;SDS011;44255;49.244;7.726;2022-09-12T09:46:02;2.60;;;2.35;;
58466;SDS011;44255;49.244;7.726;2022-09-12T09:48:28;2.90;;;2.70;;
58466;SDS011;44255;49.244;7.726;2022-09-12T09:50:58;2.88;;;2.60;;
58466;SDS011;44255;49.244;7.726;2022-09-12T09:53:31;3.42;;;2.50;;
58466;SDS011;44255;49.244;7.726;2022-09-12T09:56:02;3.17;;;2.47;;
58466;SDS011;44255;49.244;7.726;2022-09-12T09:58:32;3.88;;;2.50;;
58466;SDS011;44255;49.244;7.726;2022-09-12T10:00:59;3.08;;;2.33;;
58466;SDS011;44255;49.244;7.726;2022-09-12T10:03:33;2.00;;;1.90;;
58466;SDS011;44255;49.244;7.726;2022-09-12T10:08:43;2.88;;;2.28;;
58466;SDS011;44255;49.244;7.726;2022-09-12T10:16:34;2.90;;;2.30;;
58466;SDS011;44255;49.244;7.726;2022-09-12T10:19:20;1.98;;;1.77;;
58466;SDS011;44255;49.244;7.726;2022-09-12T10:21:50;2.90;;;2.13;;
58466;SDS011;44255;49.244;7.726;2022-09-12T10:24:23;2.45;;;2.03;;
58466;SDS011;44255;49.244;7.726;2022-09-12T10:29:38;5.15;;;1.95;;
58466;SDS011;44255;49.244;7.726;2022-09-12T10:35:01;5.50;;;2.00;;
58466;SDS011;44255;49.244;7.726;2022-09-12T10:37:32;2.63;;;2.00;;
58466;SDS011;44255;49.244;7.726;2022-09-12T10:39:59;6.28;;;2.28;;
58466;SDS011;44255;49.244;7.726;2022-09-12T10:42:47;2.95;;;1.80;;
58466;SDS011;44255;49.244;7.726;2022-09-12T10:45:18;4.75;;;2.15;;
58466;SDS011;44255;49.244;7.726;2022-09-12T10:47:50;3.38;;;2.30;;
58466;SDS011;44255;49.244;7.726;2022-09-12T10:50:30;3.17;;;2.30;;
58466;SDS011;44255;49.244;7.726;2022-09-12T10:53:46;6.13;;;2.40;;
58466;SDS011;44255;49.244;7.726;2022-09-12T10:56:06;4.55;;;2.10;;
58466;SDS011;44255;49.244;7.726;2022-09-12T11:01:12;2.20;;;2.00;;
58466;SDS011;44255;49.244;7.726;2022-09-12T11:03:58;2.50;;;2.30;;
58466;SDS011;44255;49.244;7.726;2022-09-12T11:06:56;2.10;;;1.90;;
58466;SDS011;44255;49.244;7.726;2022-09-12T11:12:15;3.58;;;2.10;;
58466;SDS011;44255;49.244;7.726;2022-09-12T11:17:59;2.78;;;2.20;;
58466;SDS011;44255;49.244;7.726;2022-09-12T11:26:00;3.33;;;2.50;;
58466;SDS011;44255;49.244;7.726;2022-09-12T11:31:23;3.20;;;2.40;;
58466;SDS011;44255;49.244;7.726;2022-09-12T11:33:54;2.35;;;2.10;;
58466;SDS011;44255;49.244;7.726;2022-09-12T11:36:27;2.92;;;2.40;;
58466;SDS011;44255;49.244;7.726;2022-09-12T11:41:31;4.68;;;2.67;;
58466;SDS011;44255;49.244;7.726;2022-09-12T11:46:40;2.80;;;2.30;;
58466;SDS011;44255;49.244;7.726;2022-09-12T11:59:51;2.97;;;2.25;;
58466;SDS011;44255;49.244;7.726;2022-09-12T12:02:27;2.50;;;2.30;;
58466;SDS011;44255;49.244;7.726;2022-09-12T12:07:53;2.28;;;2.10;;
58466;SDS011;44255;49.244;7.726;2022-09-12T12:10:21;4.25;;;2.22;;
58466;SDS011;44255;49.244;7.726;2022-09-12T12:12:50;4.03;;;2.25;;
58466;SDS011;44255;49.244;7.726;2022-09-12T12:15:18;3.65;;;2.20;;
58466;SDS011;44255;49.244;7.726;2022-09-12T12:17:45;2.00;;;1.90;;
58466;SDS011;44255;49.244;7.726;2022-09-12T12:20:28;12.55;;;2.67;;
58466;SDS011;44255;49.244;7.726;2022-09-12T12:22:54;3.65;;;2.30;;
58466;SDS011;44255;49.244;7.726;2022-09-12T12:25:39;5.47;;;2.38;;
58466;SDS011;44255;49.244;7.726;2022-09-12T12:28:35;4.05;;;2.00;;
58466;SDS011;44255;49.244;7.726;2022-09-12T12:31:07;3.97;;;1.98;;
58466;SDS011;44255;49.244;7.726;2022-09-12T12:36:09;3.08;;;2.00;;
58466;SDS011;44255;49.244;7.726;2022-09-12T12:38:52;4.50;;;1.90;;
58466;SDS011;44255;49.244;7.726;2022-09-12T12:43:46;1.57;;;1.30;;
58466;SDS011;44255;49.244;7.726;2022-09-12T12:46:13;1.50;;;1.27;;
58466;SDS011;44255;49.244;7.726;2022-09-12T12:48:58;1.35;;;1.10;;
58466;SDS011;44255;49.244;7.726;2022-09-12T12:57:13;1.35;;;1.23;;
58466;SDS011;44255;49.244;7.726;2022-09-12T12:59:46;1.42;;;1.33;;
58466;SDS011;44255;49.244;7.726;2022-09-12T13:02:18;2.28;;;1.15;;
58466;SDS011;44255;49.244;7.726;2022-09-12T13:04:47;4.78;;;1.70;;
58466;SDS011;44255;49.244;7.726;2022-09-12T13:07:20;6.00;;;1.42;;
58466;SDS011;44255;49.244;7.726;2022-09-12T13:09:50;12.85;;;1.83;;
58466;SDS011;44255;49.244;7.726;2022-09-12T13:12:18;4.45;;;1.60;;
58466;SDS011;44255;49.244;7.726;2022-09-12T13:14:54;5.78;;;1.35;;
58466;SDS011;44255;49.244;7.726;2022-09-12T13:17:43;2.83;;;1.00;;
58466;SDS011;44255;49.244;7.726;2022-09-12T13:22:40;6.78;;;1.55;;
58466;SDS011;44255;49.244;7.726;2022-09-12T13:27:55;7.70;;;1.30;;
58466;SDS011;44255;49.244;7.726;2022-09-12T13:30:35;6.63;;;1.40;;
58466;SDS011;44255;49.244;7.726;2022-09-12T13:33:06;4.38;;;0.90;;
58466;SDS011;44255;49.244;7.726;2022-09-12T13:38:28;0.95;;;0.80;;
58466;SDS011;44255;49.244;7.726;2022-09-12T13:43:40;1.58;;;0.90;;
58466;SDS011;44255;49.244;7.726;2022-09-12T13:46:07;4.90;;;1.10;;
58466;SDS011;44255;49.244;7.726;2022-09-12T13:48:37;2.60;;;0.93;;
58466;SDS011;44255;49.244;7.726;2022-09-12T13:53:51;3.42;;;1.30;;
58466;SDS011;44255;49.244;7.726;2022-09-12T13:58:56;3.92;;;1.00;;
58466;SDS011;44255;49.244;7.726;2022-09-12T14:01:34;3.85;;;0.98;;
58466;SDS011;44255;49.244;7.726;2022-09-12T14:04:09;5.05;;;1.10;;
58466;SDS011;44255;49.244;7.726;2022-09-12T14:06:58;3.50;;;1.20;;
58466;SDS011;44255;49.244;7.726;2022-09-12T14:09:28;6.65;;;1.20;;
58466;SDS011;44255;49.244;7.726;2022-09-12T14:11:58;8.25;;;0.95;;
58466;SDS011;44255;49.244;7.726;2022-09-12T14:14:26;0.80;;;0.80;;
58466;SDS011;44255;49.244;7.726;2022-09-12T14:16:55;5.03;;;1.27;;
58466;SDS011;44255;49.244;7.726;2022-09-12T14:19:22;5.35;;;0.90;;
58466;SDS011;44255;49.244;7.726;2022-09-12T14:21:50;8.07;;;1.08;;
58466;SDS011;44255;49.244;7.726;2022-09-12T14:24:17;2.08;;;0.80;;
58466;SDS011;44255;49.244;7.726;2022-09-12T14:29:08;5.00;;;1.00;;
58466;SDS011;44255;49.244;7.726;2022-09-12T14:31:40;9.30;;;1.20;;
58466;SDS011;44255;49.244;7.726;2022-09-12T14:36:50;1.33;;;0.80;;
58466;SDS011;44255;49.244;7.726;2022-09-12T14:39:32;3.08;;;0.90;;
58466;SDS011;44255;49.244;7.726;2022-09-12T14:42:19;2.55;;;0.80;;
58466;SDS011;44255;49.244;7.726;2022-09-12T14:47:39;1.13;;;0.80;;
58466;SDS011;44255;49.244;7.726;2022-09-12T14:50:16;3.42;;;0.80;;
58466;SDS011;44255;49.244;7.726;2022-09-12T14:52:45;1.42;;;0.80;;
58466;SDS011;44255;49.244;7.726;2022-09-12T14:55:27;1.73;;;0.88;;
58466;SDS011;44255;49.244;7.726;2022-09-12T15:09:01;0.68;;;0.68;;
58466;SDS011;44255;49.244;7.726;2022-09-12T15:11:30;2.08;;;0.80;;
58466;SDS011;44255;49.244;7.726;2022-09-12T15:13:57;1.70;;;0.90;;
58466;SDS011;44255;49.244;7.726;2022-09-12T15:16:22;2.17;;;0.98;;
58466;SDS011;44255;49.244;7.726;2022-09-12T15:18:48;1.27;;;0.90;;
58466;SDS011;44255;49.244;7.726;2022-09-12T15:21:15;1.00;;;0.73;;
58466;SDS011;44255;49.244;7.726;2022-09-12T15:23:43;0.80;;;0.80;;
58466;SDS011;44255;49.244;7.726;2022-09-12T15:26:12;1.80;;;1.05;;
58466;SDS011;44255;49.244;7.726;2022-09-12T15:28:39;2.13;;;1.05;;
58466;SDS011;44255;49.244;7.726;2022-09-12T15:31:06;1.20;;;0.95;;
58466;SDS011;44255;49.244;7.726;2022-09-12T15:33:36;0.80;;;0.80;;
58466;SDS011;44255;49.244;7.726;2022-09-12T15:36:01;2.20;;;1.00;;
58466;SDS011;44255;49.244;7.726;2022-09-12T15:38:26;1.42;;;1.10;;
58466;SDS011;44255;49.244;7.726;2022-09-12T15:40:52;2.03;;;1.20;;
58466;SDS011;44255;49.244;7.726;2022-09-12T15:43:18;1.75;;;0.80;;
58466;SDS011;44255;49.244;7.726;2022-09-12T15:48:09;0.60;;;0.60;;
58466;SDS011;44255;49.244;7.726;2022-09-12T15:50:35;2.53;;;1.05;;
58466;SDS011;44255;49.244;7.726;2022-09-12T15:53:00;1.40;;;0.90;;
58466;SDS011;44255;49.244;7.726;2022-09-12T15:55:29;2.53;;;0.90;;
58466;SDS011;44255;49.244;7.726;2022-09-12T15:57:56;3.20;;;0.90;;
58466;SDS011;44255;49.244;7.726;2022-09-12T16:00:22;1.00;;;0.90;;
58466;SDS011;44255;49.244;7.726;2022-09-12T16:02:49;12.23;;;1.65;;
58466;SDS011;44255;49.244;7.726;2022-09-12T16:05:18;3.72;;;1.15;;
58466;SDS011;44255;49.244;7.726;2022-09-12T16:07:45;1.70;;;0.80;;
58466;SDS011;44255;49.244;7.726;2022-09-12T16:10:15;0.75;;;0.70;;
58466;SDS011;44255;49.244;7.726;2022-09-12T16:12:42;2.30;;;1.17;;
58466;SDS011;44255;49.244;7.726;2022-09-12T16:15:12;1.77;;;0.95;;
58466;SDS011;44255;49.244;7.726;2022-09-12T16:17:39;9.40;;;1.50;;
58466;SDS011;44255;49.244;7.726;2022-09-12T16:20:05;2.03;;;1.10;;
58466;SDS011;44255;49.244;7.726;2022-09-12T16:22:31;1.60;;;1.10;;
58466;SDS011;44255;49.244;7.726;2022-09-12T16:24:57;2.85;;;0.90;;
58466;SDS011;44255;49.244;7.726;2022-09-12T16:27:22;3.17;;;1.30;;
58466;SDS011;44255;49.244;7.726;2022-09-12T16:29:47;1.97;;;1.10;;
58466;SDS011;44255;49.244;7.726;2022-09-12T16:32:12;4.67;;;1.37;;
58466;SDS011;44255;49.244;7.726;2022-09-12T16:34:38;3.53;;;1.33;;
58466;SDS011;44255;49.244;7.726;2022-09-12T16:37:03;1.03;;;1.00;;
58466;SDS011;44255;49.244;7.726;2022-09-12T16:41:54;3.13;;;0.90;;
58466;SDS011;44255;49.244;7.726;2022-09-12T16:44:20;1.10;;;1.00;;
58466;SDS011;44255;49.244;7.726;2022-09-12T16:46:45;2.20;;;1.00;;
58466;SDS011;44255;49.244;7.726;2022-09-12T16:49:10;3.33;;;1.40;;
58466;SDS011;44255;49.244;7.726;2022-09-12T16:51:36;2.05;;;1.15;;
58466;SDS011;44255;49.244;7.726;2022-09-12T16:54:01;2.55;;;1.20;;
58466;SDS011;44255;49.244;7.726;2022-09-12T16:56:27;2.50;;;1.38;;
58466;SDS011;44255;49.244;7.726;2022-09-12T16:58:52;1.60;;;1.00;;
58466;SDS011;44255;49.244;7.726;2022-09-12T17:01:20;4.32;;;1.30;;
58466;SDS011;44255;49.244;7.726;2022-09-12T17:03:47;3.00;;;1.17;;
58466;SDS011;44255;49.244;7.726;2022-09-12T17:06:17;1.77;;;1.25;;
58466;SDS011;44255;49.244;7.726;2022-09-12T17:08:43;2.00;;;1.20;;
58466;SDS011;44255;49.244;7.726;2022-09-12T17:13:40;6.75;;;2.63;;
58466;SDS011;44255;49.244;7.726;2022-09-12T17:16:06;15.15;;;7.40;;
58466;SDS011;44255;49.244;7.726;2022-09-12T17:18:34;7.60;;;4.57;;
58466;SDS011;44255;49.244;7.726;2022-09-12T17:21:00;5.68;;;3.30;;
58466;SDS011;44255;49.244;7.726;2022-09-12T17:23:25;8.90;;;3.03;;
58466;SDS011;44255;49.244;7.726;2022-09-12T17:25:51;4.67;;;2.60;;
58466;SDS011;44255;49.244;7.726;2022-09-12T17:28:17;6.50;;;3.10;;
58466;SDS011;44255;49.244;7.726;2022-09-12T17:30:42;6.30;;;2.40;;
58466;SDS011;44255;49.244;7.726;2022-09-12T17:33:08;5.03;;;2.78;;
58466;SDS011;44255;49.244;7.726;2022-09-12T17:35:33;6.97;;;2.70;;
58466;SDS011;44255;49.244;7.726;2022-09-12T17:37:59;4.10;;;2.60;;
58466;SDS011;44255;49.244;7.726;2022-09-12T17:40:25;7.22;;;2.60;;
58466;SDS011;44255;49.244;7.726;2022-09-12T17:42:50;7.43;;;2.53;;
58466;SDS011;44255;49.244;7.726;2022-09-12T17:45:15;5.23;;;2.10;;
58466;SDS011;44255;49.244;7.726;2022-09-12T17:47:41;4.10;;;1.77;;
58466;SDS011;44255;49.244;7.726;2022-09-12T17:50:07;4.40;;;1.67;;
58466;SDS011;44255;49.244;7.726;2022-09-12T17:52:33;4.43;;;1.70;;
58466;SDS011;44255;49.244;7.726;2022-09-12T17:54:58;3.03;;;1.70;;
58466;SDS011;44255;49.244;7.726;2022-09-12T17:57:23;2.57;;;1.50;;
58466;SDS011;44255;49.244;7.726;2022-09-12T17:59:50;2.95;;;1.80;;
58466;SDS011;44255;49.244;7.726;2022-09-12T18:02:15;4.73;;;2.00;;
58466;SDS011;44255;49.244;7.726;2022-09-12T18:04:42;4.70;;;2.20;;
58466;SDS011;44255;49.244;7.726;2022-09-12T18:07:12;5.50;;;2.40;;
58466;SDS011;44255;49.244;7.726;2022-09-12T18:09:39;5.20;;;2.25;;
58466;SDS011;44255;49.244;7.726;2022-09-12T18:12:07;5.18;;;1.95;;
58466;SDS011;44255;49.244;7.726;2022-09-12T18:14:33;4.83;;;1.90;;
58466;SDS011;44255;49.244;7.726;2022-09-12T18:16:58;2.75;;;1.85;;
58466;SDS011;44255;49.244;7.726;2022-09-12T18:19:25;6.75;;;1.60;;
58466;SDS011;44255;49.244;7.726;2022-09-12T18:21:51;3.15;;;2.00;;
58466;SDS011;44255;49.244;7.726;2022-09-12T18:24:20;8.50;;;2.40;;
58466;SDS011;44255;49.244;7.726;2022-09-12T18:26:45;5.60;;;2.42;;
58466;SDS011;44255;49.244;7.726;2022-09-12T18:29:11;2.87;;;2.50;;
58466;SDS011;44255;49.244;7.726;2022-09-12T18:31:40;5.65;;;2.47;;
58466;SDS011;44255;49.244;7.726;2022-09-12T18:34:05;3.23;;;1.80;;
58466;SDS011;44255;49.244;7.726;2022-09-12T18:36:36;7.25;;;2.50;;
58466;SDS011;44255;49.244;7.726;2022-09-12T18:39:02;9.48;;;2.50;;
58466;SDS011;44255;49.244;7.726;2022-09-12T18:41:28;3.22;;;2.38;;
58466;SDS011;44255;49.244;7.726;2022-09-12T18:43:54;7.43;;;2.33;;
58466;SDS011;44255;49.244;7.726;2022-09-12T18:46:20;6.00;;;2.85;;
58466;SDS011;44255;49.244;7.726;2022-09-12T18:48:46;4.70;;;1.92;;
58466;SDS011;44255;49.244;7.726;2022-09-12T18:51:12;6.37;;;2.10;;
58466;SDS011;44255;49.244;7.726;2022-09-12T18:53:39;4.60;;;2.25;;
58466;SDS011;44255;49.244;7.726;2022-09-12T18:56:07;3.50;;;2.08;;
58466;SDS011;44255;49.244;7.726;2022-09-12T18:58:36;3.95;;;2.03;;
58466;SDS011;44255;49.244;7.726;2022-09-12T19:01:09;4.97;;;2.35;;
58466;SDS011;44255;49.244;7.726;2022-09-12T19:06:06;7.47;;;2.83;;
58466;SDS011;44255;49.244;7.726;2022-09-12T19:08:34;4.22;;;2.70;;
58466;SDS011;44255;49.244;7.726;2022-09-12T19:11:00;2.58;;;2.10;;
58466;SDS011;44255;49.244;7.726;2022-09-12T19:13:26;5.47;;;2.33;;
58466;SDS011;44255;49.244;7.726;2022-09-12T19:15:51;4.73;;;2.30;;
58466;SDS011;44255;49.244;7.726;2022-09-12T19:18:16;4.30;;;2.27;;
58466;SDS011;44255;49.244;7.726;2022-09-12T19:20:42;4.07;;;2.70;;
58466;SDS011;44255;49.244;7.726;2022-09-12T19:23:07;7.22;;;3.25;;
58466;SDS011;44255;49.244;7.726;2022-09-12T19:25:32;10.17;;;2.97;;
58466;SDS011;44255;49.244;7.726;2022-09-12T19:27:58;6.10;;;2.63;;
58466;SDS011;44255;49.244;7.726;2022-09-12T19:30:23;2.83;;;2.53;;
58466;SDS011;44255;49.244;7.726;2022-09-12T19:32:48;6.25;;;2.95;;
58466;SDS011;44255;49.244;7.726;2022-09-12T19:35:14;2.70;;;2.30;;
58466;SDS011;44255;49.244;7.726;2022-09-12T19:37:39;4.57;;;2.50;;
58466;SDS011;44255;49.244;7.726;2022-09-12T19:40:04;5.77;;;3.37;;
58466;SDS011;44255;49.244;7.726;2022-09-12T19:42:31;22.13;;;16.45;;
58466;SDS011;44255;49.244;7.726;2022-09-12T19:47:23;7.22;;;3.97;;
58466;SDS011;44255;49.244;7.726;2022-09-12T19:49:49;5.25;;;3.50;;
58466;SDS011;44255;49.244;7.726;2022-09-12T19:52:14;5.10;;;3.37;;
58466;SDS011;44255;49.244;7.726;2022-09-12T19:54:40;5.45;;;3.38;;
58466;SDS011;44255;49.244;7.726;2022-09-12T19:57:05;4.87;;;3.53;;
58466;SDS011;44255;49.244;7.726;2022-09-12T19:59:31;9.45;;;3.40;;
58466;SDS011;44255;49.244;7.726;2022-09-12T20:01:56;5.43;;;3.03;;
58466;SDS011;44255;49.244;7.726;2022-09-12T20:04:21;5.00;;;3.03;;
58466;SDS011;44255;49.244;7.726;2022-09-12T20:06:46;6.73;;;3.47;;
58466;SDS011;44255;49.244;7.726;2022-09-12T20:09:12;2.77;;;2.37;;
58466;SDS011;44255;49.244;7.726;2022-09-12T20:11:37;5.07;;;3.00;;
58466;SDS011;44255;49.244;7.726;2022-09-12T20:14:02;4.10;;;2.90;;
58466;SDS011;44255;49.244;7.726;2022-09-12T20:16:27;11.77;;;3.93;;
58466;SDS011;44255;49.244;7.726;2022-09-12T20:18:54;5.77;;;3.27;;
58466;SDS011;44255;49.244;7.726;2022-09-12T20:21:21;4.40;;;2.88;;
58466;SDS011;44255;49.244;7.726;2022-09-12T20:23:58;4.53;;;3.17;;
58466;SDS011;44255;49.244;7.726;2022-09-12T20:26:28;7.82;;;3.20;;
58466;SDS011;44255;49.244;7.726;2022-09-12T20:28:53;4.03;;;3.33;;
58466;SDS011;44255;49.244;7.726;2022-09-12T20:31:19;5.65;;;3.10;;
58466;SDS011;44255;49.244;7.726;2022-09-12T20:33:44;5.60;;;3.30;;
58466;SDS011;44255;49.244;7.726;2022-09-12T20:36:11;4.87;;;3.10;;
58466;SDS011;44255;49.244;7.726;2022-09-12T20:38:39;5.28;;;3.10;;